Time;durP1;ratioP1;P1;durP2;ratioP2;P2;SDS_P1;SDS_P2;PMS_P1;PMS_P2;Temp;Humidity;BMP_temperature;BMP_pressure;BME280_temperature;BME280_humidity;BME280_pressure;Samples;Min_cycle;Max_cycle;Signal;HPM_P1;HPM_P2
2022/10/12 00:00:30;;;;;;;14.65;7.20;;;;;;;6.12;87.89;102465.31;5034965;28;20120;-59
2022/10/12 00:02:55;;;;;;;19.38;7.50;;;;;;;6.18;87.72;102456.22;5032854;28;20037;-57
2022/10/12 00:05:20;;;;;;;16.80;7.30;;;;;;;6.12;87.43;102456.59;5048761;28;20033;-55
2022/10/12 00:07:46;;;;;;;18.20;7.38;;;;;;;6.09;86.70;102462.88;5037450;28;20052;-56
2022/10/12 00:10:11;;;;;;;18.30;7.15;;;;;;;6.09;87.36;102462.88;5036271;28;20482;-58
2022/10/12 00:12:36;;;;;;;15.75;6.78;;;;;;;6.12;87.76;102457.41;5035581;28;20079;-57
2022/10/12 00:15:02;;;;;;;16.40;6.75;;;;;;;6.13;87.65;102455.66;5046644;28;20037;-58
2022/10/12 00:17:28;;;;;;;16.90;7.13;;;;;;;6.08;87.37;102449.81;5038216;28;20033;-57
2022/10/12 00:19:53;;;;;;;14.38;7.03;;;;;;;6.07;87.23;102448.13;5039658;28;20033;-55
2022/10/12 00:22:18;;;;;;;14.23;6.65;;;;;;;6.08;87.42;102455.94;5045427;28;20443;-58
2022/10/12 00:24:43;;;;;;;16.73;7.80;;;;;;;6.05;87.75;102451.69;5036114;28;20950;-60
2022/10/12 00:27:09;;;;;;;16.40;7.30;;;;;;;6.09;87.24;102454.13;5040337;28;20040;-57
2022/10/12 00:29:34;;;;;;;15.00;7.10;;;;;;;5.99;87.24;102452.03;5043087;28;20417;-56
2022/10/12 00:31:59;;;;;;;17.00;6.90;;;;;;;5.95;87.36;102452.28;5036428;28;20139;-56
2022/10/12 00:34:25;;;;;;;14.30;6.85;;;;;;;5.98;87.79;102460.88;5046537;28;20067;-58
2022/10/12 00:36:50;;;;;;;16.80;7.60;;;;;;;5.86;87.58;102451.91;5045059;28;20048;-59
2022/10/12 00:39:15;;;;;;;17.13;7.18;;;;;;;5.89;87.22;102450.88;5037886;28;20103;-57
2022/10/12 00:41:42;;;;;;;15.35;6.90;;;;;;;5.87;87.77;102450.13;5036524;28;20429;-59
2022/10/12 00:44:34;;;;;;;14.27;6.80;;;;;;;5.90;88.18;102453.41;5047858;28;20029;-59
2022/10/12 00:47:04;;;;;;;16.00;7.18;;;;;;;5.74;87.57;102448.22;5040677;28;20033;-59
2022/10/12 00:49:30;;;;;;;18.92;7.38;;;;;;;5.81;88.75;102453.13;5038685;28;20033;-56
2022/10/12 00:52:01;;;;;;;17.33;7.07;;;;;;;5.83;88.24;102452.09;5037807;28;20095;-56
2022/10/12 00:54:37;;;;;;;15.52;7.22;;;;;;;5.75;88.80;102449.03;5042704;28;20109;-57
2022/10/12 00:57:05;;;;;;;15.70;7.35;;;;;;;5.72;89.49;102454.50;5038255;28;20037;-58
2022/10/12 00:59:35;;;;;;;16.80;7.18;;;;;;;5.74;89.49;102458.75;5030746;28;20045;-59
2022/10/12 01:02:01;;;;;;;18.25;7.38;;;;;;;5.78;89.47;102460.22;5036662;28;20489;-57
2022/10/12 01:04:28;;;;;;;15.98;6.88;;;;;;;5.74;89.19;102463.16;5035240;28;20037;-57
2022/10/12 01:06:54;;;;;;;15.32;7.00;;;;;;;5.72;89.13;102463.22;5033785;28;20590;-56
2022/10/12 01:09:20;;;;;;;14.70;7.10;;;;;;;5.81;89.45;102461.84;5037421;28;20120;-56
2022/10/12 01:11:45;;;;;;;16.10;6.90;;;;;;;5.81;89.99;102453.13;5035087;28;20037;-58
2022/10/12 01:14:11;;;;;;;17.98;7.22;;;;;;;5.79;89.07;102446.13;5038422;28;20511;-57
2022/10/12 01:17:00;;;;;;;14.10;6.82;;;;;;;5.88;89.99;102443.91;5030714;28;20093;-58
2022/10/12 01:19:34;;;;;;;14.43;6.65;;;;;;;5.86;89.25;102438.72;5040363;28;20065;-58
2022/10/12 01:22:03;;;;;;;16.25;7.03;;;;;;;5.80;89.83;102441.72;5027125;28;20440;-57
2022/10/12 01:24:51;;;;;;;16.27;7.47;;;;;;;5.81;90.25;102432.88;5039481;28;20047;-56
2022/10/12 01:27:42;;;;;;;17.88;7.30;;;;;;;5.86;89.73;102424.69;5033623;28;20072;-56
2022/10/12 01:30:31;;;;;;;15.95;7.35;;;;;;;5.86;89.66;102419.44;5042699;28;20075;-56
2022/10/12 01:33:11;;;;;;;18.17;7.40;;;;;;;5.83;90.14;102424.91;5038529;28;20102;-55
2022/10/12 01:35:44;;;;;;;15.73;7.45;;;;;;;5.85;89.56;102423.00;5036843;28;20136;-56
2022/10/12 01:38:28;;;;;;;;;;;;;;;5.99;88.85;102425.69;5044389;28;20029;-58
2022/10/12 01:41:03;;;;;;;13.00;6.90;;;;;;;5.85;89.75;102420.38;5039760;28;20000;-57
2022/10/12 01:43:38;;;;;;;19.13;7.03;;;;;;;5.84;89.44;102416.06;5035698;28;20120;-57
2022/10/12 01:46:13;;;;;;;15.43;7.15;;;;;;;5.84;89.61;102421.31;5033919;28;20037;-58
2022/10/12 01:48:40;;;;;;;15.57;6.90;;;;;;;5.84;89.44;102416.06;5039884;28;20041;-56
2022/10/12 01:51:10;;;;;;;13.95;7.55;;;;;;;5.78;90.17;102402.31;5031669;28;20048;-56
2022/10/12 01:53:46;;;;;;;18.30;7.53;;;;;;;5.83;90.09;102403.84;5028789;28;20100;-57
2022/10/12 01:56:21;;;;;;;13.75;7.40;;;;;;;5.81;89.42;102400.47;5035239;28;20115;-56
2022/10/12 01:59:04;;;;;;;19.30;7.38;;;;;;;5.82;90.04;102407.41;5029958;28;20041;-58
2022/10/12 02:01:48;;;;;;;15.23;7.15;;;;;;;5.77;90.49;102405.91;5030263;28;20041;-56
2022/10/12 02:04:31;;;;;;;17.30;7.30;;;;;;;5.81;90.61;102411.00;5038428;28;20393;-59
2022/10/12 02:07:03;;;;;;;14.45;7.72;;;;;;;5.72;91.11;102407.13;5032941;28;20072;-59
2022/10/12 02:09:31;;;;;;;16.98;7.40;;;;;;;5.66;91.57;102408.31;5033009;28;20161;-57
2022/10/12 02:12:02;;;;;;;15.52;6.95;;;;;;;5.68;91.08;102393.28;5030957;28;20904;-57
2022/10/12 02:14:37;;;;;;;16.85;7.30;;;;;;;5.72;91.45;102392.16;5036967;28;20036;-57
2022/10/12 02:17:06;;;;;;;16.17;7.32;;;;;;;5.65;90.82;102390.81;5037513;28;20035;-56
2022/10/12 02:19:38;;;;;;;14.35;7.18;;;;;;;5.66;91.43;102387.25;5037889;28;20029;-57
2022/10/12 02:22:05;;;;;;;16.17;7.53;;;;;;;5.60;90.79;102384.97;5024915;28;20120;-56
2022/10/12 02:24:34;;;;;;;13.93;7.60;;;;;;;5.61;91.26;102384.03;5041833;28;20036;-57
2022/10/12 02:27:00;;;;;;;15.38;7.32;;;;;;;5.65;91.02;102390.81;5030920;28;20033;-58
2022/10/12 02:29:35;;;;;;;14.60;7.18;;;;;;;5.67;90.44;102373.16;5030945;28;20036;-58
2022/10/12 02:42:14;;;;;;;13.90;7.70;;;;;;;5.58;90.60;102392.13;5034116;28;21830;-56
2022/10/12 02:44:41;;;;;;;17.60;7.97;;;;;;;5.57;91.26;102387.81;5040480;28;20114;-59
2022/10/12 02:47:09;;;;;;;16.85;7.53;;;;;;;5.55;90.88;102376.50;5028063;28;20074;-57
2022/10/12 02:49:35;;;;;;;19.00;7.35;;;;;;;5.57;90.77;102387.81;5028221;28;20124;-57
2022/10/12 02:52:03;;;;;;;14.20;7.28;;;;;;;5.54;90.76;102377.44;5032967;28;20045;-57
2022/10/12 02:54:28;;;;;;;15.65;7.43;;;;;;;5.46;89.91;102381.38;5032359;28;20038;-58
2022/10/12 02:56:54;;;;;;;19.17;7.40;;;;;;;5.51;90.37;102374.06;5037513;28;20079;-56
2022/10/12 02:59:19;;;;;;;17.20;7.80;;;;;;;5.49;90.77;102372.47;5035225;28;20889;-57
2022/10/12 03:01:45;;;;;;;18.55;7.85;;;;;;;5.43;90.18;102371.03;5032602;28;20044;-56
2022/10/12 03:04:10;;;;;;;16.15;7.65;;;;;;;5.43;90.35;102371.03;5031097;28;20040;-56
2022/10/12 03:06:36;;;;;;;15.02;7.30;;;;;;;5.39;90.49;102369.53;5038086;28;20037;-57
2022/10/12 03:09:01;;;;;;;15.43;7.75;;;;;;;5.38;90.72;102368.66;5029198;28;20037;-56
2022/10/12 03:11:27;;;;;;;15.98;8.20;;;;;;;5.43;90.59;102371.03;5035090;28;20135;-56
2022/10/12 03:13:54;;;;;;;16.02;8.30;;;;;;;5.36;90.18;102365.28;5035977;28;20357;-57
2022/10/12 03:16:19;;;;;;;15.40;8.10;;;;;;;5.32;89.75;102363.78;5028781;28;20028;-56
2022/10/12 03:18:45;;;;;;;14.05;7.65;;;;;;;5.30;89.72;102364.78;5029857;28;20041;-56
2022/10/12 03:21:11;;;;;;;16.25;8.10;;;;;;;5.29;89.49;102358.69;5029808;28;20035;-58
2022/10/12 03:23:36;;;;;;;17.45;8.38;;;;;;;5.25;90.29;102363.25;5036131;28;20033;-58
2022/10/12 03:26:02;;;;;;;15.07;8.00;;;;;;;5.27;89.72;102359.72;5039629;28;20045;-57
2022/10/12 03:28:27;;;;;;;17.77;7.80;;;;;;;5.23;89.28;102359.06;5035302;28;20033;-59
2022/10/12 03:30:53;;;;;;;18.58;8.30;;;;;;;5.18;89.35;102358.47;5037851;28;20124;-59
2022/10/12 03:33:19;;;;;;;14.10;8.02;;;;;;;5.19;89.64;102362.78;5028690;28;20064;-57
2022/10/12 03:35:44;;;;;;;17.88;8.32;;;;;;;5.18;89.93;102361.94;5041855;28;20028;-57
2022/10/12 03:38:10;;;;;;;17.73;8.25;;;;;;;5.17;89.61;102359.41;5041191;28;20112;-57
2022/10/12 03:40:37;;;;;;;15.52;8.32;;;;;;;5.15;89.54;102361.25;5028635;28;20124;-59
2022/10/12 03:43:02;;;;;;;16.52;7.82;;;;;;;5.13;89.23;102353.44;5033073;28;20056;-56
2022/10/12 03:45:27;;;;;;;17.02;7.88;;;;;;;5.16;90.09;102361.19;5034954;28;20036;-57
2022/10/12 03:47:53;;;;;;;15.00;7.97;;;;;;;5.12;89.55;102362.28;5029379;28;20046;-56
2022/10/12 03:50:18;;;;;;;17.15;8.18;;;;;;;5.10;89.67;102353.66;5027164;28;20037;-56
2022/10/12 03:52:44;;;;;;;18.83;8.30;;;;;;;5.11;89.29;102360.59;5035565;28;20041;-57
2022/10/12 03:55:09;;;;;;;17.58;8.55;;;;;;;5.07;89.78;102359.06;5033690;28;20037;-58
2022/10/12 03:57:34;;;;;;;16.60;8.45;;;;;;;5.07;89.98;102353.81;5036641;28;20048;-57
2022/10/12 03:59:59;;;;;;;16.45;8.45;;;;;;;5.02;90.18;102353.25;5034761;28;20106;-58
2022/10/12 04:02:25;;;;;;;17.35;8.43;;;;;;;4.98;89.95;102345.53;5026550;28;20048;-56
2022/10/12 04:04:50;;;;;;;19.02;8.55;;;;;;;5.04;90.34;102348.75;5031911;28;20041;-58
2022/10/12 04:07:15;;;;;;;19.35;8.35;;;;;;;4.97;89.91;102340.34;5032407;28;20038;-58
2022/10/12 04:09:41;;;;;;;16.63;8.32;;;;;;;4.95;89.54;102343.06;5039968;28;20063;-58
2022/10/12 04:12:06;;;;;;;20.65;8.05;;;;;;;4.96;90.06;102342.13;5035627;28;20041;-58
2022/10/12 04:14:32;;;;;;;17.67;8.98;;;;;;;4.97;90.18;102342.97;5033166;28;20510;-60
2022/10/12 04:16:59;;;;;;;19.50;9.25;;;;;;;4.94;90.43;102351.88;5034406;28;20613;-57
2022/10/12 04:19:24;;;;;;;20.65;8.82;;;;;;;4.96;90.13;102344.78;5029578;28;20072;-57
2022/10/12 04:21:49;;;;;;;18.85;9.05;;;;;;;4.98;90.36;102340.25;5032149;28;20061;-57
2022/10/12 04:24:15;;;;;;;19.83;9.32;;;;;;;4.97;91.12;102349.09;5033217;28;20430;-57
2022/10/12 04:26:40;;;;;;;19.50;9.38;;;;;;;4.98;91.07;102342.88;5039652;28;20316;-59
2022/10/12 04:29:05;;;;;;;20.10;9.15;;;;;;;5.00;91.25;102347.22;5029868;28;20161;-57
2022/10/12 04:31:30;;;;;;;22.65;9.80;;;;;;;5.01;90.43;102343.63;5023961;28;20037;-58
2022/10/12 04:33:56;;;;;;;17.83;9.35;;;;;;;4.98;90.71;102345.53;5032619;28;20037;-57
2022/10/12 04:36:25;;;;;;;20.88;9.60;;;;;;;4.98;91.45;102344.66;5034111;28;20026;-56
2022/10/12 04:38:51;;;;;;;20.08;9.70;;;;;;;4.97;90.17;102343.84;5031733;28;20037;-58
2022/10/12 04:41:16;;;;;;;21.25;10.18;;;;;;;4.88;90.95;102344.34;5037124;28;20440;-56
2022/10/12 04:43:42;;;;;;;21.35;9.60;;;;;;;4.93;90.81;102346.72;5034289;28;20037;-59
2022/10/12 04:46:07;;;;;;;20.90;9.40;;;;;;;4.89;91.08;102353.09;5033769;28;20034;-59
2022/10/12 04:48:32;;;;;;;20.23;8.90;;;;;;;4.91;90.41;102354.69;5034782;28;20025;-59
2022/10/12 04:50:58;;;;;;;17.35;9.63;;;;;;;4.88;91.04;102349.59;5045256;28;20037;-60
2022/10/12 04:53:23;;;;;;;18.92;9.35;;;;;;;4.84;90.31;102353.34;5035366;28;20127;-57
2022/10/12 04:55:49;;;;;;;20.65;9.85;;;;;;;4.77;90.91;102351.97;5039232;28;20086;-60
2022/10/12 04:58:14;;;;;;;23.55;9.73;;;;;;;4.78;91.70;102353.69;5029168;28;20037;-59
2022/10/12 05:00:39;;;;;;;22.70;9.52;;;;;;;4.78;91.11;102353.69;5029674;28;20447;-60
2022/10/12 05:03:05;;;;;;;17.90;9.23;;;;;;;4.80;91.56;102354.44;5027684;28;20033;-58
2022/10/12 05:05:30;;;;;;;19.95;9.00;;;;;;;4.76;91.11;102360.81;5033804;28;20636;-58
2022/10/12 05:07:56;;;;;;;16.42;9.25;;;;;;;4.76;91.57;102352.91;5032604;28;20033;-59
2022/10/12 05:10:21;;;;;;;16.35;9.23;;;;;;;4.75;91.14;102345.97;5034992;28;20120;-59
2022/10/12 05:12:46;;;;;;;20.38;9.70;;;;;;;4.74;91.08;102347.75;5032772;28;20029;-58
2022/10/12 05:15:12;;;;;;;21.23;10.10;;;;;;;4.74;91.39;102347.75;5032406;28;20033;-59
2022/10/12 05:17:37;;;;;;;19.00;9.38;;;;;;;4.71;90.28;102340.03;5031233;28;20035;-58
2022/10/12 05:20:03;;;;;;;21.63;9.77;;;;;;;4.73;90.67;102335.53;5036020;28;20087;-59
2022/10/12 05:22:30;;;;;;;24.58;10.68;;;;;;;4.68;90.32;102327.06;5034813;28;20035;-58
2022/10/12 05:24:55;;;;;;;20.02;10.32;;;;;;;4.64;90.65;102326.38;5033556;28;20027;-59
2022/10/12 05:27:20;;;;;;;19.30;9.93;;;;;;;4.57;90.37;102325.03;5032716;28;20044;-59
2022/10/12 05:29:45;;;;;;;18.10;9.50;;;;;;;4.56;91.24;102323.34;5032297;28;20434;-59
2022/10/12 05:32:11;;;;;;;18.25;9.80;;;;;;;4.58;91.03;102327.59;5033962;28;20061;-59
2022/10/12 05:34:36;;;;;;;19.30;10.50;;;;;;;4.56;90.70;102318.09;5031265;28;20036;-58
2022/10/12 05:37:01;;;;;;;21.73;10.18;;;;;;;4.56;91.06;102318.09;5030541;28;20029;-59
2022/10/12 05:39:27;;;;;;;21.48;9.90;;;;;;;4.58;91.23;102324.09;5033598;28;20968;-57
2022/10/12 05:41:54;;;;;;;18.50;10.65;;;;;;;4.58;90.87;102326.72;5031202;28;20056;-58
2022/10/12 05:44:20;;;;;;;20.58;10.73;;;;;;;4.58;90.80;102326.72;5034263;28;20481;-59
2022/10/12 05:46:45;;;;;;;18.67;10.52;;;;;;;4.61;91.48;102321.31;5029950;28;20042;-58
2022/10/12 05:49:10;;;;;;;18.50;10.70;;;;;;;4.60;91.45;102313.50;5031603;28;20037;-58
2022/10/12 05:51:37;;;;;;;21.83;10.82;;;;;;;4.56;91.48;102316.31;5030314;28;20110;-60
2022/10/12 05:54:03;;;;;;;22.33;10.15;;;;;;;4.59;91.62;102317.91;5037035;28;20412;-58
2022/10/12 05:56:28;;;;;;;21.75;10.68;;;;;;;4.58;92.02;102321.47;5031916;28;20037;-58
2022/10/12 05:58:53;;;;;;;21.75;11.18;;;;;;;4.60;92.09;102324.88;5031838;28;20469;-59
2022/10/12 06:01:18;;;;;;;18.17;10.23;;;;;;;4.64;91.79;102317.66;5029354;28;20021;-59
2022/10/12 06:03:44;;;;;;;19.15;10.55;;;;;;;4.67;92.21;102325.38;5031386;28;20028;-60
2022/10/12 06:06:09;;;;;;;21.55;11.13;;;;;;;4.66;92.04;102327.16;5034607;28;20033;-58
2022/10/12 06:08:34;;;;;;;23.75;10.90;;;;;;;4.65;92.24;102330.72;5036423;28;20039;-59
2022/10/12 06:11:00;;;;;;;19.88;10.63;;;;;;;4.67;92.23;102328.84;5029764;28;20034;-59
2022/10/12 06:13:25;;;;;;;22.02;10.95;;;;;;;4.66;92.25;102324.53;5027754;28;20052;-58
2022/10/12 06:15:51;;;;;;;24.65;11.05;;;;;;;4.66;91.93;102324.53;5034717;28;20060;-59
2022/10/12 06:18:17;;;;;;;23.13;11.50;;;;;;;4.66;92.86;102324.53;5030509;28;20033;-59
2022/10/12 06:20:51;;;;;;;21.40;11.90;;;;;;;4.68;93.27;102320.03;5029750;28;20026;-58
2022/10/12 06:23:17;;;;;;;22.42;12.05;;;;;;;4.71;92.90;102316.38;5032427;28;20998;-59
2022/10/12 06:25:46;;;;;;;22.75;10.85;;;;;;;4.75;92.62;102317.06;5034959;28;20025;-59
2022/10/12 06:28:11;;;;;;;21.00;11.10;;;;;;;4.78;93.40;102319.53;5034535;28;20041;-59
2022/10/12 06:30:37;;;;;;;23.45;11.60;;;;;;;4.80;93.24;102322.91;5034037;28;20046;-60
2022/10/12 06:33:02;;;;;;;24.60;11.35;;;;;;;4.87;93.62;102316.38;5033932;28;20025;-60
2022/10/12 06:35:28;;;;;;;24.83;11.68;;;;;;;4.90;94.09;102316.19;5033832;28;20611;-57
2022/10/12 06:37:53;;;;;;;24.40;11.77;;;;;;;4.92;93.46;102318.72;5027015;28;20048;-60
2022/10/12 06:40:19;;;;;;;26.80;11.80;;;;;;;4.89;93.78;102317.13;5037998;28;20037;-58
2022/10/12 06:42:44;;;;;;;21.48;11.63;;;;;;;4.87;94.15;102305.84;5031723;28;20614;-61
2022/10/12 06:45:10;;;;;;;27.80;11.93;;;;;;;4.89;94.90;102317.13;5037367;28;20389;-58
2022/10/12 06:47:35;;;;;;;23.50;12.25;;;;;;;4.94;94.48;102312.44;5029064;28;20081;-60
2022/10/12 06:50:00;;;;;;;25.83;12.20;;;;;;;5.00;94.10;102321.78;5028468;28;20116;-60
2022/10/12 06:52:26;;;;;;;25.63;12.02;;;;;;;5.04;94.33;102319.81;5033463;28;20426;-59
2022/10/12 06:54:51;;;;;;;21.50;11.55;;;;;;;5.05;94.33;102318.88;5035901;28;20037;-60
2022/10/12 06:57:16;;;;;;;21.23;11.93;;;;;;;5.10;95.37;102322.91;5024728;28;20037;-59
2022/10/12 06:59:41;;;;;;;24.10;12.55;;;;;;;5.10;95.28;102322.09;5036880;28;20127;-60
2022/10/12 07:02:09;;;;;;;27.67;12.90;;;;;;;5.11;94.72;102324.63;5030439;28;20044;-58
2022/10/12 07:04:35;;;;;;;23.88;12.00;;;;;;;5.13;95.32;102321.06;5031446;28;20112;-60
2022/10/12 07:07:00;;;;;;;23.10;12.90;;;;;;;5.16;95.07;102329.63;5026343;28;20123;-58
2022/10/12 07:09:26;;;;;;;30.77;12.85;;;;;;;5.11;94.82;102326.41;5031459;28;20635;-59
2022/10/12 07:11:51;;;;;;;22.77;12.43;;;;;;;5.15;95.45;102329.69;5029497;28;20264;-57
2022/10/12 07:14:16;;;;;;;29.63;12.77;;;;;;;5.16;95.46;102327.00;5034470;28;20114;-58
2022/10/12 07:16:42;;;;;;;26.88;12.65;;;;;;;5.14;95.32;102320.13;5036286;28;20049;-58
2022/10/12 07:19:07;;;;;;;23.90;12.77;;;;;;;5.14;95.44;102318.34;5028017;28;20037;-59
2022/10/12 07:21:32;;;;;;;27.67;13.35;;;;;;;5.12;95.30;102325.47;5035619;28;20064;-58
2022/10/12 07:23:58;;;;;;;26.35;12.57;;;;;;;5.14;95.53;102313.09;5035955;28;20099;-58
2022/10/12 07:26:23;;;;;;;25.00;13.10;;;;;;;5.12;95.96;102309.69;5027203;28;20065;-58
2022/10/12 07:28:48;;;;;;;24.25;12.65;;;;;;;5.11;95.85;102314.13;5039076;28;20040;-57
2022/10/12 07:31:14;;;;;;;30.85;13.65;;;;;;;5.12;95.38;102312.31;5035570;28;20061;-59
2022/10/12 07:33:39;;;;;;;26.40;13.35;;;;;;;5.16;96.34;102316.47;5028765;28;20092;-58
2022/10/12 07:36:05;;;;;;;26.45;13.45;;;;;;;5.18;96.12;102314.59;5035580;28;20476;-58
2022/10/12 07:38:30;;;;;;;31.00;13.68;;;;;;;5.23;95.85;102316.97;5026103;28;20477;-58
2022/10/12 07:41:00;;;;;;;25.50;13.65;;;;;;;5.23;96.66;102315.19;5032893;28;20068;-58
2022/10/12 07:43:27;;;;;;;29.65;14.07;;;;;;;5.23;96.46;102323.06;5035976;28;20085;-58
2022/10/12 07:45:52;;;;;;;27.75;14.57;;;;;;;5.29;97.08;102321.00;5040092;28;20072;-57
2022/10/12 07:48:18;;;;;;;34.10;14.75;;;;;;;5.33;96.99;102318.09;5035136;28;20583;-60
2022/10/12 07:50:43;;;;;;;31.25;15.63;;;;;;;5.41;97.05;102315.03;5036483;28;20572;-58
2022/10/12 07:53:08;;;;;;;28.20;15.63;;;;;;;5.56;97.06;102317.66;5027262;28;20037;-58
2022/10/12 07:55:34;;;;;;;30.27;14.88;;;;;;;5.67;97.62;102320.50;5035651;28;20024;-58
2022/10/12 07:58:00;;;;;;;28.77;15.35;;;;;;;5.79;97.53;102324.19;5034776;28;20033;-60
2022/10/12 08:00:26;;;;;;;26.70;14.60;;;;;;;5.88;96.86;102322.78;5032796;28;20044;-59
2022/10/12 08:02:51;;;;;;;23.63;14.88;;;;;;;5.95;96.60;102324.09;5023190;28;20405;-59
2022/10/12 08:05:20;;;;;;;28.20;15.27;;;;;;;6.00;96.85;102327.31;5032110;28;20038;-60
2022/10/12 08:07:45;;;;;;;29.55;16.73;;;;;;;6.04;96.99;102326.22;5033756;28;20040;-59
2022/10/12 08:10:11;;;;;;;32.92;17.08;;;;;;;6.11;96.91;102328.47;5038650;28;20469;-58
2022/10/12 08:12:36;;;;;;;33.60;17.98;;;;;;;6.15;97.13;102329.94;5018019;28;20064;-60
2022/10/12 08:15:01;;;;;;;35.95;19.17;;;;;;;6.24;97.59;102339.94;5025086;28;20660;-57
2022/10/12 08:17:27;;;;;;;30.75;19.60;;;;;;;6.31;97.10;102330.69;5027228;28;20121;-58
2022/10/12 08:19:52;;;;;;;29.83;19.33;;;;;;;6.43;97.47;102329.06;5026936;28;20095;-57
2022/10/12 08:22:17;;;;;;;33.88;20.15;;;;;;;6.53;97.03;102328.47;5026570;28;20060;-59
2022/10/12 08:24:42;;;;;;;39.30;22.50;;;;;;;6.65;97.61;102324.25;5029722;28;20143;-58
2022/10/12 08:27:08;;;;;;;38.33;22.65;;;;;;;6.76;97.44;102324.34;5026204;28;20029;-59
2022/10/12 08:29:33;;;;;;;39.38;22.10;;;;;;;6.86;97.42;102325.47;5028678;28;20032;-58
2022/10/12 08:32:00;;;;;;;36.58;21.60;;;;;;;6.94;97.70;102321.47;5037761;28;20040;-57
2022/10/12 08:34:25;;;;;;;40.33;22.58;;;;;;;7.05;97.46;102318.97;5020733;28;20038;-58
2022/10/12 08:36:51;;;;;;;40.95;22.50;;;;;;;7.13;96.53;102321.97;5024960;28;20024;-59
2022/10/12 08:39:16;;;;;;;39.05;21.75;;;;;;;7.21;96.48;102310.88;5020481;28;20033;-58
2022/10/12 08:41:51;;;;;;;34.70;21.00;;;;;;;7.32;95.70;102310.19;5029887;28;20048;-59
2022/10/12 08:44:44;;;;;;;38.65;22.42;;;;;;;7.47;96.53;102312.72;5037392;28;20412;-58
2022/10/12 08:47:18;;;;;;;39.83;22.02;;;;;;;7.57;96.57;102318.19;5029587;28;20025;-58
2022/10/12 08:49:46;;;;;;;37.60;21.70;;;;;;;7.67;96.11;102314.84;5033567;28;20022;-58
2022/10/12 08:52:25;;;;;;;40.17;21.70;;;;;;;7.82;95.19;102309.44;5029032;28;20024;-58
2022/10/12 08:54:50;;;;;;;43.75;21.25;;;;;;;7.99;95.13;102312.72;5039309;28;20495;-60
2022/10/12 08:57:17;;;;;;;36.88;20.25;;;;;;;8.09;93.70;102308.44;5035290;28;20068;-59
2022/10/12 08:59:44;;;;;;;34.05;20.58;;;;;;;8.14;94.12;102316.88;5030410;28;20488;-60
2022/10/12 09:02:24;;;;;;;40.85;21.13;;;;;;;8.21;93.71;102323.41;5029070;28;20056;-58
2022/10/12 09:05:00;;;;;;;36.33;21.83;;;;;;;8.33;93.76;102320.84;5030778;28;20076;-59
2022/10/12 09:07:29;;;;;;;44.45;22.58;;;;;;;8.43;93.69;102321.91;5028735;28;20060;-58
2022/10/12 09:10:05;;;;;;;37.00;21.60;;;;;;;8.54;92.15;102325.59;5039163;28;20048;-60
2022/10/12 09:12:49;;;;;;;35.70;20.60;;;;;;;8.61;92.46;102325.06;5030233;28;20069;-59
2022/10/12 09:15:22;;;;;;;31.08;19.75;;;;;;;8.60;90.88;102335.72;5032390;28;20499;-60
2022/10/12 09:17:55;;;;;;;;;;;;;;;8.63;91.77;102340.78;5029842;28;20122;-58
2022/10/12 09:20:20;;;;;;;33.22;19.38;;;;;;;8.69;90.89;102342.97;5029540;28;19956;-57
2022/10/12 09:22:52;;;;;;;35.63;18.40;;;;;;;8.78;90.69;102332.69;5025162;28;20080;-59
2022/10/12 09:25:22;;;;;;;33.53;18.70;;;;;;;8.83;89.91;102328.75;5029206;28;20041;-57
2022/10/12 09:27:48;;;;;;;34.20;18.60;;;;;;;8.94;89.50;102341.16;5036760;28;20428;-58
2022/10/12 09:30:15;;;;;;;31.55;18.30;;;;;;;8.95;89.07;102332.31;5028461;28;20025;-58
2022/10/12 09:33:04;;;;;;;34.67;18.20;;;;;;;9.07;88.63;102333.19;5027128;28;20355;-59
2022/10/12 09:35:31;;;;;;;30.92;18.17;;;;;;;9.16;88.57;102334.28;5024024;28;20507;-60
2022/10/12 09:37:56;;;;;;;29.45;18.35;;;;;;;9.23;88.47;102324.91;5024073;28;20535;-58
2022/10/12 09:40:29;;;;;;;31.73;18.65;;;;;;;9.26;88.13;102329.16;5022854;28;20033;-58
2022/10/12 09:42:57;;;;;;;33.15;18.40;;;;;;;9.29;86.58;102323.63;5031443;28;20520;-57
2022/10/12 09:45:23;;;;;;;32.97;18.67;;;;;;;9.38;85.74;102328.22;5027742;28;20056;-60
2022/10/12 09:48:07;;;;;;;35.55;18.80;;;;;;;9.44;86.53;102326.91;5030452;28;20484;-58
2022/10/12 09:50:46;;;;;;;;;;;;;;;9.50;87.27;102329.09;5028527;28;20428;-57
2022/10/12 09:53:18;;;;;;;34.15;20.02;;;;;;;9.61;85.93;102322.09;5034307;28;19925;-58
2022/10/12 09:55:52;;;;;;;32.75;19.70;;;;;;;9.63;85.64;102310.44;5029279;28;20039;-58
2022/10/12 09:58:19;;;;;;;31.77;18.83;;;;;;;9.71;83.86;102307.19;5026232;28;20480;-59
2022/10/12 10:01:18;;;;;;;34.45;19.08;;;;;;;9.76;84.55;102310.34;5036419;28;20040;-59
2022/10/12 10:03:47;;;;;;;33.35;19.48;;;;;;;9.85;84.60;102308.78;5031370;28;20045;-58
2022/10/12 10:06:14;;;;;;;32.97;19.25;;;;;;;9.95;84.03;102306.25;5026562;28;20057;-58
2022/10/12 10:08:44;;;;;;;34.50;19.05;;;;;;;10.06;83.62;102289.47;5028874;28;20036;-58
2022/10/12 10:11:22;;;;;;;33.05;18.88;;;;;;;10.14;82.50;102289.72;5028855;28;20025;-59
2022/10/12 10:13:51;;;;;;;32.22;18.40;;;;;;;10.24;82.55;102289.81;5025958;28;20141;-57
2022/10/12 10:16:18;;;;;;;36.10;18.55;;;;;;;10.33;82.37;102297.06;5030980;28;20048;-57
2022/10/12 10:18:53;;;;;;;30.55;17.42;;;;;;;10.49;80.70;102295.81;5026788;28;20480;-59
2022/10/12 10:21:30;;;;;;;36.17;18.77;;;;;;;10.53;81.26;102297.25;5026597;28;20037;-59
2022/10/12 10:24:04;;;;;;;35.42;17.55;;;;;;;10.59;80.47;102302.06;5021875;28;20548;-59
2022/10/12 10:26:50;;;;;;;25.60;15.13;;;;;;;10.63;81.33;102298.22;5028385;28;20041;-60
2022/10/12 10:29:21;;;;;;;27.40;14.95;;;;;;;10.76;80.13;102297.19;5024246;28;20033;-58
2022/10/12 10:31:47;;;;;;;31.20;15.10;;;;;;;10.80;79.20;102303.09;5021101;28;20040;-57
2022/10/12 10:34:21;;;;;;;31.88;15.85;;;;;;;10.85;78.70;102306.22;5025503;28;20497;-59
2022/10/12 10:36:52;;;;;;;25.52;15.25;;;;;;;10.87;78.35;102299.78;5021401;28;20049;-57
2022/10/12 10:39:25;;;;;;;23.60;12.32;;;;;;;10.95;77.98;102295.66;5020771;28;20498;-57
2022/10/12 10:41:52;;;;;;;22.50;11.38;;;;;;;11.02;76.62;102296.84;5036005;28;20073;-59
2022/10/12 10:44:25;;;;;;;23.67;10.00;;;;;;;11.13;76.63;102295.91;5022983;28;20118;-58
2022/10/12 10:46:52;;;;;;;22.70;9.68;;;;;;;11.15;75.24;102286.84;5026947;28;20060;-58
2022/10/12 10:49:39;;;;;;;21.25;9.90;;;;;;;11.22;76.51;102281.03;5021990;28;20029;-58
2022/10/12 10:52:07;;;;;;;19.60;9.20;;;;;;;11.28;75.67;102288.47;5036302;28;20123;-58
2022/10/12 10:54:37;;;;;;;23.48;9.52;;;;;;;11.27;73.82;102285.00;5026378;28;20140;-58
2022/10/12 10:57:05;;;;;;;19.25;8.70;;;;;;;11.37;74.89;102278.88;5024068;28;20056;-58
2022/10/12 10:59:48;;;;;;;19.35;7.72;;;;;;;11.42;72.87;102280.19;5022562;28;20045;-58
2022/10/12 11:02:18;;;;;;;15.32;7.78;;;;;;;11.48;73.04;102264.66;5020576;28;20037;-59
2022/10/12 11:04:50;;;;;;;18.88;7.57;;;;;;;11.57;72.51;102263.88;5027662;28;20033;-60
2022/10/12 11:07:45;;;;;;;17.25;7.55;;;;;;;11.69;72.94;102262.81;5036094;28;20467;-61
2022/10/12 11:10:20;;;;;;;27.77;7.82;;;;;;;11.88;72.82;102263.03;5024307;28;20025;-59
2022/10/12 11:12:49;;;;;;;24.40;7.97;;;;;;;11.94;69.42;102255.34;5029280;28;20056;-62
2022/10/12 11:15:33;;;;;;;18.77;7.40;;;;;;;12.01;72.23;102244.16;5029728;28;20033;-62
2022/10/12 11:18:32;;;;;;;18.00;7.30;;;;;;;12.11;70.08;102247.72;5028846;28;20124;-61
2022/10/12 11:21:03;;;;;;;14.02;6.32;;;;;;;12.10;67.95;102238.06;5028147;28;20087;-61
2022/10/12 11:23:38;;;;;;;17.58;7.38;;;;;;;12.10;69.31;102233.56;5027750;28;20061;-63
2022/10/12 11:26:20;;;;;;;20.50;6.90;;;;;;;12.19;69.36;102231.09;5029259;28;20120;-61
2022/10/12 11:28:46;;;;;;;17.95;7.18;;;;;;;12.30;67.56;102223.00;5025532;28;20558;-61
2022/10/12 11:31:21;;;;;;;16.45;6.65;;;;;;;12.36;67.56;102217.09;5021080;28;20048;-58
2022/10/12 11:33:47;;;;;;;26.63;7.38;;;;;;;12.45;68.02;102223.41;5024313;28;20518;-58
2022/10/12 11:36:18;;;;;;;19.42;6.70;;;;;;;12.42;67.29;102221.03;5020037;28;20543;-60
2022/10/12 11:38:51;;;;;;;15.52;6.47;;;;;;;12.41;68.11;102219.34;5025555;28;20034;-58